This is the latest recevied weather packets stored in our database for station/object WY6Y. If no packets are shown the sender has not sent any weather packets the latest 10 day(s).
| Time | Temp. | Humidity | Pressure | Rain* | Wind** | Luminosity | Snow |
|---|---|---|---|---|---|---|---|
| 1787398428 | 28.89° C | 60% | 1015.6 hPa | 0 mm | - | - | - |
| 1787397827 | 28.89° C | 61% | 1015.6 hPa | 0 mm | - | - | - |
| 1787397226 | 28.33° C | 61% | 1015.6 hPa | 0 mm | - | - | - |
| 1787396624 | 28.33° C | 61% | 1015.6 hPa | 0 mm | - | - | - |
| 1787396023 | 27.78° C | 64% | 1015.6 hPa | 0 mm | - | - | - |
| 1787395422 | 27.22° C | 65% | 1015.6 hPa | 0 mm | - | - | - |
| 1787394820 | 26.67° C | 66% | 1015.6 hPa | 0 mm | - | - | - |
| 1787394219 | 26.67° C | 66% | 1015.2 hPa | 0 mm | - | - | - |
| 1787393618 | 26.67° C | 66% | 1015.2 hPa | 0 mm | - | - | - |
| 1787393017 | 26.67° C | 67% | 1015.2 hPa | 0 mm | - | - | - |
| 1787392415 | 26.11° C | 68% | 1015.2 hPa | 0 mm | - | - | - |
| 1787391814 | 26.11° C | 69% | 1015.2 hPa | 0 mm | - | - | - |
| 1787391213 | 25.56° C | 70% | 1015.2 hPa | 0 mm | - | - | - |
| 1787390612 | 25.56° C | 71% | 1015.2 hPa | 0 mm | - | - | - |
| 1787390010 | 26.11° C | 69% | 1015.2 hPa | 0 mm | - | - | - |
| 1787389409 | 26.11° C | 68% | 1015.6 hPa | 0 mm | - | - | - |
| 1787388808 | 26.11° C | 68% | 1015.9 hPa | 0 mm | - | - | - |
| 1787388206 | 26.11° C | 68% | 1015.9 hPa | 0 mm | - | - | - |
| 1787387605 | 26.11° C | 68% | 1015.9 hPa | 0 mm | - | - | - |
| 1787387004 | 26.11° C | 70% | 1016.3 hPa | 0 mm | - | - | - |
| 1787386403 | 26.11° C | 67% | 1016.3 hPa | 0 mm | - | - | - |
| 1787385802 | 26.11° C | 67% | 1016.3 hPa | 0 mm | - | - | - |
| 1787385200 | 26.11° C | 67% | 1016.3 hPa | 0 mm | - | - | - |
| 1787384599 | 26.67° C | 66% | 1015.9 hPa | 0 mm | - | - | - |
| 1787383998 | 26.67° C | 67% | 1015.9 hPa | 0 mm | - | - | - |
* Rain latest hour (hover to see other rain measurements)
** Current wind speed in m/s (hover to see current wind gust speed)